Genoa, Arkansas
Current Conditions -  °F | °C
As of 5:53 AM on Monday 22 Dec 2014 (Local Time) from KTXK Reporting Station
Overcast Overcast  
Wind Chill: 50°   Ceiling: 700
Heat Index: 50°   Visibility: 8mi
Dew Point: 48°   Wind: 12mph
Humidity: 93%   Direction: 170°S
Pressure: 29.72"   Gusts: NA
Location:  33.38°N, 93.91°W
Report Text: KTXK 221153Z 17010KT 8SM OVC007 10/09 A2972 RMK AO2 CIG 006V012 SLP061 T01000089 10100 20089 56014
Loading
Personal Weather Stations






























Interactive Weather Map New forecast layout! Learn more

10-Day Weather Forecast

Advertisements
Track Severe Weather on mobile